createdAt,value
2018-12-13T00:02:08.524Z,85.04
2018-12-13T00:04:36.119Z,84.86
2018-12-13T00:07:03.676Z,85.46
2018-12-13T00:09:31.275Z,84.62
2018-12-13T00:11:58.840Z,85.35
2018-12-13T00:14:26.429Z,84.77
2018-12-13T00:16:53.977Z,85.26
2018-12-13T00:19:21.550Z,84.94
2018-12-13T00:21:49.109Z,85.06
2018-12-13T00:24:16.742Z,85.29
2018-12-13T00:26:44.322Z,85.19
2018-12-13T00:29:11.911Z,85.37
2018-12-13T00:31:39.497Z,84.93
2018-12-13T00:34:07.091Z,85.91
2018-12-13T00:36:39.707Z,85.49
2018-12-13T00:39:05.781Z,85.34
2018-12-13T00:41:33.344Z,85.70
2018-12-13T00:44:00.937Z,85.61
2018-12-13T00:46:28.523Z,86.17
2018-12-13T00:48:56.064Z,85.87
2018-12-13T00:51:23.645Z,86.13
2018-12-13T00:53:51.928Z,86.34
2018-12-13T00:56:19.512Z,86.76
2018-12-13T00:58:47.095Z,86.59
2018-12-13T01:01:14.693Z,86.90
2018-12-13T01:03:42.288Z,86.94
2018-12-13T01:06:09.840Z,87.01
2018-12-13T01:08:37.403Z,86.16
2018-12-13T01:11:04.977Z,86.50
2018-12-13T01:13:32.559Z,86.13
2018-12-13T01:16:00.145Z,86.62
2018-12-13T01:18:27.750Z,86.03
2018-12-13T01:20:55.382Z,86.69
2018-12-13T01:23:22.986Z,86.89
2018-12-13T01:25:50.560Z,87.08
2018-12-13T01:28:18.192Z,86.57
2018-12-13T01:30:45.955Z,86.86
2018-12-13T01:33:14.061Z,86.55
2018-12-13T01:35:41.799Z,86.33
2018-12-13T01:38:09.640Z,86.71
2018-12-13T01:40:37.280Z,86.69
2018-12-13T01:43:04.952Z,86.93
2018-12-13T01:45:35.867Z,87.11
2018-12-13T01:48:03.476Z,87.20
2018-12-13T01:50:31.105Z,86.91
2018-12-13T01:52:58.710Z,87.02
2018-12-13T01:55:26.430Z,86.92
2018-12-13T01:57:54.154Z,86.46
2018-12-13T02:00:22.261Z,86.06
2018-12-13T02:02:50.116Z,86.00
2018-12-13T02:05:18.218Z,86.64
2018-12-13T02:07:45.850Z,86.57
2018-12-13T02:10:13.438Z,86.52
2018-12-13T02:12:41.547Z,86.57
2018-12-13T02:15:09.784Z,86.54
2018-12-13T02:17:37.954Z,87.13
2018-12-13T02:20:05.934Z,86.91
2018-12-13T02:22:34.162Z,87.03
2018-12-13T02:25:01.815Z,86.44
2018-12-13T02:27:29.414Z,86.19
2018-12-13T02:29:56.992Z,86.11
2018-12-13T02:32:24.680Z,86.23
2018-12-13T02:34:52.314Z,86.85
2018-12-13T02:37:19.971Z,86.63
2018-12-13T02:39:47.571Z,86.58
2018-12-13T02:42:16.284Z,85.88
2018-12-13T02:44:44.244Z,85.97
2018-12-13T02:47:11.841Z,86.12
2018-12-13T02:49:39.443Z,86.41
2018-12-13T02:52:07.052Z,86.54
2018-12-13T02:54:34.623Z,86.82
2018-12-13T02:57:02.332Z,86.58
2018-12-13T02:59:29.916Z,86.45
2018-12-13T03:01:57.496Z,86.63
2018-12-13T03:04:25.183Z,86.62
2018-12-13T03:06:52.803Z,85.90
2018-12-13T03:09:20.485Z,85.86
2018-12-13T03:11:48.062Z,86.12
2018-12-13T03:14:15.682Z,86.54
2018-12-13T03:16:43.293Z,86.21
2018-12-13T03:19:10.873Z,86.81
2018-12-13T03:21:38.484Z,85.96
2018-12-13T03:24:06.083Z,86.14
2018-12-13T03:26:33.817Z,86.06
2018-12-13T03:29:01.444Z,86.05
2018-12-13T03:31:29.006Z,86.25
2018-12-13T03:33:56.558Z,86.08
2018-12-13T03:36:24.158Z,86.49
2018-12-13T03:38:51.700Z,86.33
2018-12-13T03:41:19.570Z,86.45
2018-12-13T03:43:47.119Z,86.21
2018-12-13T03:46:14.722Z,85.79
2018-12-13T03:48:42.277Z,85.90
2018-12-13T03:51:09.848Z,85.92
2018-12-13T03:53:37.435Z,85.87
2018-12-13T03:56:05.365Z,86.25
2018-12-13T03:58:33.252Z,86.54
2018-12-13T04:01:00.912Z,86.24
2018-12-13T04:03:28.467Z,86.75
2018-12-13T04:05:56.032Z,86.87
2018-12-13T04:08:23.619Z,86.41
2018-12-13T04:10:51.154Z,85.88
2018-12-13T04:13:18.711Z,85.94
2018-12-13T04:15:46.253Z,85.78
2018-12-13T04:18:13.885Z,85.67
2018-12-13T04:20:41.510Z,86.31
2018-12-13T04:23:09.102Z,85.72
2018-12-13T04:25:36.724Z,86.46
2018-12-13T04:28:04.303Z,86.01
2018-12-13T04:30:31.895Z,85.69
2018-12-13T04:32:59.476Z,85.67
2018-12-13T04:35:27.444Z,85.67
2018-12-13T04:37:55.106Z,85.20
2018-12-13T04:40:22.679Z,85.87
2018-12-13T04:42:50.254Z,85.68
2018-12-13T04:45:17.895Z,85.82
2018-12-13T04:47:45.506Z,86.09
2018-12-13T04:50:13.128Z,85.61
2018-12-13T04:52:40.838Z,85.67
2018-12-13T04:55:08.450Z,86.35
2018-12-13T04:57:36.015Z,86.06
2018-12-13T05:00:03.973Z,85.08
2018-12-13T05:02:31.684Z,85.50
2018-12-13T05:04:59.225Z,85.15
2018-12-13T05:07:26.893Z,85.65
2018-12-13T05:09:54.491Z,84.97
2018-12-13T05:12:22.077Z,85.77
2018-12-13T05:14:49.699Z,85.85
2018-12-13T05:17:17.612Z,85.04
2018-12-13T05:19:45.159Z,85.79
2018-12-13T05:22:12.751Z,85.93
2018-12-13T05:24:40.369Z,85.97
2018-12-13T05:27:08.267Z,85.79
2018-12-13T05:29:35.869Z,85.90
2018-12-13T05:32:03.408Z,86.19
2018-12-13T05:34:30.999Z,85.60
2018-12-13T05:36:58.575Z,85.60
2018-12-13T05:39:26.151Z,85.58
2018-12-13T05:41:53.902Z,85.83
2018-12-13T05:44:21.536Z,85.38
2018-12-13T05:46:49.264Z,85.69
2018-12-13T05:49:16.891Z,85.22
2018-12-13T05:51:44.488Z,85.48
2018-12-13T05:54:12.075Z,84.63
2018-12-13T05:56:40.019Z,84.53
2018-12-13T05:59:07.655Z,84.86
2018-12-13T06:01:35.225Z,84.79
2018-12-13T06:04:02.886Z,84.94
2018-12-13T06:06:30.446Z,85.22
2018-12-13T06:08:58.053Z,85.45
2018-12-13T06:11:25.901Z,84.93
2018-12-13T06:13:53.464Z,85.08
2018-12-13T06:16:21.105Z,84.66
2018-12-13T06:18:48.722Z,85.58
2018-12-13T06:21:16.864Z,84.94
2018-12-13T06:23:44.418Z,85.15
2018-12-13T06:26:12.116Z,85.77
2018-12-13T06:28:39.683Z,86.20
2018-12-13T06:31:07.290Z,85.42
2018-12-13T06:33:34.976Z,85.93
2018-12-13T06:36:02.560Z,85.96
2018-12-13T06:38:30.173Z,85.70
2018-12-13T06:40:57.805Z,85.71
2018-12-13T06:43:25.378Z,85.48
2018-12-13T06:45:53.019Z,85.12
2018-12-13T06:48:20.644Z,85.33
2018-12-13T06:50:48.237Z,84.91
2018-12-13T06:53:15.837Z,85.01
2018-12-13T06:55:43.400Z,84.88
2018-12-13T06:58:10.995Z,85.56
2018-12-13T07:00:38.897Z,85.51
2018-12-13T07:03:06.545Z,85.90
2018-12-13T07:05:34.386Z,85.98
2018-12-13T07:08:07.612Z,85.99
2018-12-13T07:10:31.880Z,86.30
2018-12-13T07:12:59.545Z,85.83
2018-12-13T07:15:27.237Z,86.26
2018-12-13T07:17:54.837Z,86.45
2018-12-13T07:20:22.491Z,86.46
2018-12-13T07:22:50.029Z,86.21
2018-12-13T07:25:17.649Z,86.21
2018-12-13T07:27:45.246Z,86.06
2018-12-13T07:30:12.943Z,85.86
2018-12-13T07:32:40.573Z,86.14
2018-12-13T07:35:08.183Z,86.87
2018-12-13T07:37:35.784Z,87.01
2018-12-13T07:40:04.705Z,86.53
2018-12-13T07:42:32.988Z,85.31
2018-12-13T07:45:02.010Z,85.67
2018-12-13T07:47:29.812Z,85.64
2018-12-13T07:49:57.748Z,86.12
2018-12-13T07:52:25.338Z,85.89
2018-12-13T07:54:52.935Z,85.88
2018-12-13T07:57:20.595Z,86.04
2018-12-13T07:59:48.514Z,86.21
2018-12-13T08:02:16.119Z,85.50
2018-12-13T08:04:43.686Z,84.93
2018-12-13T08:07:11.282Z,85.00
2018-12-13T08:09:38.852Z,85.01
2018-12-13T08:12:06.427Z,84.92
2018-12-13T08:14:35.033Z,85.74
2018-12-13T08:17:02.599Z,84.77
2018-12-13T08:19:30.529Z,85.45
2018-12-13T08:21:58.151Z,85.67
2018-12-13T08:24:25.961Z,84.43
2018-12-13T08:26:53.670Z,84.59
2018-12-13T08:29:21.397Z,84.93
2018-12-13T08:31:49.032Z,85.26
2018-12-13T08:34:16.651Z,85.64
2018-12-13T08:36:44.246Z,85.82
2018-12-13T08:39:11.868Z,85.12
2018-12-13T08:41:39.465Z,85.47
2018-12-13T08:44:07.095Z,85.45
2018-12-13T08:46:36.595Z,85.12
2018-12-13T08:49:04.681Z,84.23
2018-12-13T08:51:32.319Z,84.37
2018-12-13T08:53:59.913Z,83.91
2018-12-13T08:56:27.462Z,84.39
2018-12-13T08:58:55.384Z,84.44
2018-12-13T09:01:22.982Z,83.71
2018-12-13T09:03:50.810Z,84.21
2018-12-13T09:06:18.419Z,83.50
2018-12-13T09:08:46.354Z,83.30
2018-12-13T09:11:13.929Z,83.60
2018-12-13T09:13:41.586Z,83.47
2018-12-13T09:16:09.167Z,83.50
2018-12-13T09:18:36.737Z,83.59
2018-12-13T09:21:04.505Z,83.54
2018-12-13T09:23:32.158Z,82.71
2018-12-13T09:25:59.730Z,82.45
2018-12-13T09:28:27.313Z,82.27
2018-12-13T09:30:54.925Z,82.07
2018-12-13T09:33:22.691Z,81.63
2018-12-13T09:35:50.368Z,81.79
2018-12-13T09:38:18.137Z,82.61
2018-12-13T09:40:45.886Z,80.75
2018-12-13T09:43:13.462Z,81.11
2018-12-13T09:45:41.039Z,81.40
2018-12-13T09:48:08.657Z,82.20
2018-12-13T09:50:36.229Z,82.35
2018-12-13T09:53:03.795Z,82.20
2018-12-13T09:55:31.388Z,82.48
2018-12-13T09:57:59.051Z,82.67
2018-12-13T10:00:27.000Z,81.77
2018-12-13T10:05:35.232Z,81.71
2018-12-13T10:08:02.836Z,81.79
2018-12-13T10:10:30.411Z,80.59
2018-12-13T10:12:57.977Z,80.82
2018-12-13T10:15:31.836Z,80.77
2018-12-13T10:17:55.599Z,81.34
2018-12-13T10:20:23.225Z,80.68
2018-12-13T10:22:50.868Z,80.91
2018-12-13T10:25:18.463Z,81.05
2018-12-13T10:27:46.100Z,81.49
2018-12-13T10:30:13.729Z,81.01
2018-12-13T10:32:41.360Z,81.10
2018-12-13T10:35:11.419Z,81.27
2018-12-13T10:37:38.824Z,81.27
2018-12-13T10:40:06.743Z,81.25
2018-12-13T10:42:34.337Z,81.77
2018-12-13T10:45:01.962Z,81.92
2018-12-13T10:47:29.635Z,81.69
2018-12-13T10:49:57.637Z,81.51
2018-12-13T10:52:25.217Z,81.79
2018-12-13T10:54:52.837Z,81.67
2018-12-13T10:57:20.488Z,81.75
2018-12-13T10:59:48.091Z,80.48
2018-12-13T11:02:21.180Z,81.02
2018-12-13T11:04:48.814Z,80.89
2018-12-13T11:07:16.451Z,80.97
2018-12-13T11:09:44.035Z,80.00
2018-12-13T11:12:11.907Z,79.64
2018-12-13T11:14:39.561Z,79.00
2018-12-13T11:17:07.325Z,78.74
2018-12-13T11:19:34.860Z,79.47
2018-12-13T11:22:02.502Z,79.66
2018-12-13T11:24:30.102Z,79.73
2018-12-13T11:27:01.777Z,79.79
2018-12-13T11:29:41.340Z,79.52
2018-12-13T11:32:08.947Z,80.19
2018-12-13T11:34:36.619Z,79.69
2018-12-13T11:37:04.268Z,80.18
2018-12-13T11:39:31.970Z,80.63
2018-12-13T11:41:59.598Z,80.99
2018-12-13T11:44:27.263Z,80.77
2018-12-13T11:46:54.878Z,81.06
2018-12-13T11:49:23.406Z,79.28
2018-12-13T11:51:52.918Z,79.62
2018-12-13T11:54:24.536Z,80.71
2018-12-13T11:56:52.115Z,79.37
2018-12-13T11:59:19.942Z,79.02
2018-12-13T12:01:50.374Z,79.45
2018-12-13T12:04:19.451Z,80.71
2018-12-13T12:06:47.147Z,80.57
2018-12-13T12:09:14.871Z,79.70
2018-12-13T12:11:42.975Z,78.97
2018-12-13T12:14:10.560Z,79.25
2018-12-13T12:16:38.223Z,78.56
2018-12-13T12:19:05.870Z,79.35
2018-12-13T12:21:33.672Z,78.77
2018-12-13T12:24:01.461Z,79.98
2018-12-13T12:26:29.070Z,80.01
2018-12-13T12:28:56.659Z,80.08
2018-12-13T12:31:24.255Z,80.15
2018-12-13T12:33:51.853Z,80.33
2018-12-13T12:36:19.528Z,81.03
2018-12-13T12:38:47.122Z,80.56
2018-12-13T12:41:14.701Z,81.05
2018-12-13T12:43:42.309Z,81.40
2018-12-13T12:46:09.847Z,81.73
2018-12-13T12:48:37.486Z,81.15
2018-12-13T12:51:05.068Z,81.38
2018-12-13T12:53:32.752Z,81.18
2018-12-13T12:56:00.374Z,81.38
2018-12-13T12:58:27.974Z,81.79
2018-12-13T13:00:55.591Z,82.28
2018-12-13T13:03:23.186Z,82.61
2018-12-13T13:05:50.928Z,83.30
2018-12-13T13:08:18.583Z,82.95
2018-12-13T13:10:46.289Z,82.28
2018-12-13T13:13:13.978Z,82.58
2018-12-13T13:15:41.607Z,83.47
2018-12-13T13:18:09.221Z,83.87
2018-12-13T13:20:36.795Z,83.33
2018-12-13T13:23:04.456Z,83.20
2018-12-13T13:25:32.131Z,83.56
2018-12-13T13:27:59.724Z,82.91
2018-12-13T13:30:27.452Z,83.30
2018-12-13T13:32:55.069Z,83.07
2018-12-13T13:35:22.689Z,82.15
2018-12-13T13:37:50.374Z,81.82
2018-12-13T13:40:17.931Z,81.98
2018-12-13T13:42:45.548Z,82.65
2018-12-13T13:45:13.331Z,82.30
2018-12-13T13:47:41.118Z,82.67
2018-12-13T13:50:09.379Z,82.74
2018-12-13T13:52:37.724Z,82.80
2018-12-13T13:55:05.906Z,82.13
2018-12-13T13:57:33.546Z,82.44
2018-12-13T14:00:01.145Z,82.28
2018-12-13T14:02:28.802Z,83.00
2018-12-13T14:04:56.417Z,82.64
2018-12-13T14:07:24.023Z,83.22
2018-12-13T14:09:51.753Z,83.26
2018-12-13T14:12:19.518Z,83.27
2018-12-13T14:14:47.177Z,83.23
2018-12-13T14:17:14.834Z,83.43
2018-12-13T14:19:42.495Z,83.27
2018-12-13T14:22:10.119Z,83.05
2018-12-13T14:24:37.809Z,83.50
2018-12-13T14:27:05.893Z,83.23
2018-12-13T14:29:33.514Z,83.67
2018-12-13T14:32:01.102Z,83.84
2018-12-13T14:34:28.710Z,83.29
2018-12-13T14:36:56.360Z,82.98
2018-12-13T14:39:23.983Z,82.78
2018-12-13T14:41:51.647Z,82.99
2018-12-13T14:44:19.277Z,82.72
2018-12-13T14:46:46.888Z,82.82
2018-12-13T14:49:14.593Z,83.21
2018-12-13T14:51:42.180Z,82.93
2018-12-13T14:54:10.080Z,82.19
2018-12-13T14:56:37.695Z,82.08
2018-12-13T14:59:05.369Z,81.98
2018-12-13T15:01:34.350Z,82.33
2018-12-13T15:04:02.201Z,82.12
2018-12-13T15:06:29.764Z,81.55
2018-12-13T15:08:57.453Z,81.85
2018-12-13T15:11:25.080Z,81.28
2018-12-13T15:13:53.320Z,81.81
2018-12-13T15:16:21.261Z,81.46
2018-12-13T15:18:48.991Z,81.67
2018-12-13T15:21:16.707Z,81.45
2018-12-13T15:23:44.386Z,81.10
2018-12-13T15:26:11.997Z,80.91
2018-12-13T15:28:39.562Z,79.79
2018-12-13T15:31:07.292Z,79.84
2018-12-13T15:33:35.260Z,80.45
2018-12-13T15:36:02.980Z,80.69
2018-12-13T15:38:30.835Z,80.52
2018-12-13T15:40:58.967Z,81.18
2018-12-13T15:43:26.585Z,80.27
2018-12-13T15:45:54.564Z,80.22
2018-12-13T15:48:22.181Z,80.81
2018-12-13T15:50:49.851Z,80.98
2018-12-13T15:53:17.439Z,80.48
2018-12-13T15:55:45.151Z,80.67
2018-12-13T15:58:12.753Z,80.73
2018-12-13T16:00:40.376Z,80.63
2018-12-13T16:03:08.055Z,79.42
2018-12-13T16:05:35.667Z,80.13
2018-12-13T16:08:03.516Z,80.05
2018-12-13T16:10:31.137Z,80.27
2018-12-13T16:12:58.811Z,80.94
2018-12-13T16:15:26.674Z,80.39
2018-12-13T16:17:54.263Z,81.05
2018-12-13T16:20:21.883Z,80.98
2018-12-13T16:22:49.613Z,79.99
2018-12-13T16:25:17.418Z,79.73
2018-12-13T16:27:44.993Z,79.65
2018-12-13T16:30:12.771Z,79.52
2018-12-13T16:32:40.429Z,80.07
2018-12-13T16:35:08.365Z,79.83
2018-12-13T16:37:35.931Z,79.60
2018-12-13T16:40:10.145Z,79.55
2018-12-13T16:42:33.863Z,79.73
2018-12-13T16:45:01.426Z,80.05
2018-12-13T16:47:29.343Z,80.27
2018-12-13T16:49:56.941Z,79.85
2018-12-13T16:52:24.822Z,79.96
2018-12-13T16:54:52.512Z,79.09
2018-12-13T16:57:20.138Z,79.48
2018-12-13T16:59:48.014Z,79.00
2018-12-13T17:02:15.714Z,78.91
2018-12-13T17:04:43.518Z,79.36
2018-12-13T17:07:11.125Z,79.24
2018-12-13T17:09:38.746Z,79.36
2018-12-13T17:12:06.409Z,78.83
2018-12-13T17:14:34.121Z,78.79
2018-12-13T17:17:01.723Z,79.54
2018-12-13T17:19:29.323Z,79.31
2018-12-13T17:21:57.243Z,79.53
2018-12-13T17:24:24.829Z,80.22
2018-12-13T17:26:52.436Z,80.17
2018-12-13T17:29:20.325Z,80.45
2018-12-13T17:31:48.169Z,80.18
2018-12-13T17:34:15.739Z,80.44
2018-12-13T17:36:43.439Z,79.74
2018-12-13T17:39:11.011Z,80.05
2018-12-13T17:41:38.647Z,80.76
2018-12-13T17:44:06.251Z,80.98
2018-12-13T17:46:33.825Z,80.42
2018-12-13T17:49:01.398Z,80.18
2018-12-13T17:51:28.984Z,80.92
2018-12-13T17:53:56.878Z,80.25
2018-12-13T17:56:24.577Z,78.99
2018-12-13T17:58:52.184Z,79.75
2018-12-13T18:01:19.930Z,78.28
2018-12-13T18:03:47.723Z,78.43
2018-12-13T18:06:15.382Z,78.55
2018-12-13T18:08:43.070Z,78.26
2018-12-13T18:11:10.644Z,78.47
2018-12-13T18:13:38.244Z,77.67
2018-12-13T18:16:05.965Z,76.96
2018-12-13T18:18:33.614Z,77.48
2018-12-13T18:21:01.305Z,77.36
2018-12-13T18:23:28.920Z,77.44
2018-12-13T18:25:56.665Z,76.93
2018-12-13T18:28:24.269Z,76.19
2018-12-13T18:30:52.113Z,76.21
2018-12-13T18:33:20.214Z,75.74
2018-12-13T18:35:47.814Z,76.85
2018-12-13T18:38:15.419Z,77.01
2018-12-13T18:40:43.044Z,77.17
2018-12-13T18:43:10.606Z,77.12
2018-12-13T18:45:38.175Z,77.36
2018-12-13T18:48:05.885Z,77.19
2018-12-13T18:50:33.746Z,76.86
2018-12-13T18:53:01.403Z,76.62
2018-12-13T18:55:29.088Z,76.22
2018-12-13T18:57:56.749Z,75.76
2018-12-13T19:00:24.320Z,76.55
2018-12-13T19:02:52.305Z,76.31
2018-12-13T19:05:20.122Z,75.38
2018-12-13T19:07:47.735Z,75.08
2018-12-13T19:10:15.394Z,73.23
2018-12-13T19:12:43.042Z,73.01
2018-12-13T19:15:10.853Z,73.54
2018-12-13T19:17:38.460Z,73.90
2018-12-13T19:20:06.824Z,73.93
2018-12-13T19:22:37.438Z,74.62
2018-12-13T19:25:06.674Z,74.61
2018-12-13T19:27:34.374Z,74.23
2018-12-13T19:30:02.068Z,75.25
2018-12-13T19:32:29.768Z,75.37
2018-12-13T19:35:00.241Z,75.12
2018-12-13T19:37:26.977Z,75.94
2018-12-13T19:39:54.604Z,75.87
2018-12-13T19:42:22.183Z,75.77
2018-12-13T19:44:50.229Z,74.96
2018-12-13T19:47:17.969Z,75.29
2018-12-13T19:49:46.548Z,75.50
2018-12-13T19:52:16.757Z,74.27
2018-12-13T19:54:44.485Z,73.69
2018-12-13T19:57:13.461Z,73.25
2018-12-13T19:59:41.319Z,73.48
2018-12-13T20:02:10.725Z,73.79
2018-12-13T20:04:38.379Z,74.50
2018-12-13T20:07:06.800Z,74.00
2018-12-13T20:09:34.377Z,73.60
2018-12-13T20:12:02.007Z,74.53
2018-12-13T20:14:29.661Z,74.77
2018-12-13T20:16:57.226Z,74.33
2018-12-13T20:19:25.114Z,74.91
2018-12-13T20:21:52.798Z,74.57
2018-12-13T20:24:20.486Z,75.10
2018-12-13T20:26:48.073Z,74.51
2018-12-13T20:29:16.123Z,74.08
2018-12-13T20:31:43.712Z,74.05
2018-12-13T20:34:13.024Z,74.02
2018-12-13T20:36:40.579Z,73.99
2018-12-13T20:39:08.970Z,74.20
2018-12-13T20:41:37.562Z,74.94
2018-12-13T20:44:05.195Z,74.65
2018-12-13T20:46:33.839Z,75.60
2018-12-13T20:49:01.586Z,75.25
2018-12-13T20:51:29.939Z,76.09
2018-12-13T20:53:57.563Z,76.01
2018-12-13T20:56:25.237Z,75.47
2018-12-13T20:58:52.858Z,75.71
2018-12-13T21:01:21.352Z,76.38
2018-12-13T21:03:49.262Z,76.67
2018-12-13T21:06:19.283Z,77.07
2018-12-13T21:08:47.345Z,76.69
2018-12-13T21:11:15.025Z,76.89
2018-12-13T21:13:42.609Z,75.78
2018-12-13T21:16:10.255Z,76.20
2018-12-13T21:18:37.993Z,76.30
2018-12-13T21:21:06.068Z,75.53
2018-12-13T21:23:33.650Z,76.45
2018-12-13T21:26:01.394Z,76.36
2018-12-13T21:28:29.187Z,76.38
2018-12-13T21:30:56.766Z,76.06
2018-12-13T21:33:24.384Z,76.06
2018-12-13T21:35:52.067Z,76.46
2018-12-13T21:38:19.755Z,76.31
2018-12-13T21:40:48.712Z,76.65
2018-12-13T21:43:16.600Z,76.61
2018-12-13T21:45:44.181Z,77.59
2018-12-13T21:48:11.804Z,77.13
2018-12-13T21:50:39.398Z,77.85
2018-12-13T21:53:07.057Z,77.43
2018-12-13T21:55:34.666Z,77.37
2018-12-13T21:58:02.239Z,77.82
2018-12-13T22:00:29.855Z,77.84
2018-12-13T22:02:57.423Z,77.99
2018-12-13T22:05:24.974Z,78.33
2018-12-13T22:07:52.575Z,78.44
2018-12-13T22:10:20.141Z,78.54
2018-12-13T22:12:47.870Z,78.37
2018-12-13T22:15:15.414Z,78.36
2018-12-13T22:17:43.043Z,77.84
2018-12-13T22:20:11.004Z,78.40
2018-12-13T22:22:38.612Z,78.50
2018-12-13T22:25:06.612Z,78.64
2018-12-13T22:27:34.510Z,78.89
2018-12-13T22:30:02.065Z,78.65
2018-12-13T22:32:29.627Z,78.42
2018-12-13T22:34:57.226Z,78.67
2018-12-13T22:37:24.954Z,78.89
2018-12-13T22:39:52.535Z,79.36
2018-12-13T22:42:20.108Z,78.91
2018-12-13T22:44:47.676Z,79.24
2018-12-13T22:47:15.502Z,78.73
2018-12-13T22:49:43.386Z,78.34
2018-12-13T22:52:10.990Z,78.99
2018-12-13T22:54:38.604Z,78.23
2018-12-13T22:57:06.204Z,78.44
2018-12-13T22:59:34.130Z,78.51
2018-12-13T23:02:02.001Z,78.47
2018-12-13T23:04:29.636Z,78.83
2018-12-13T23:06:57.239Z,79.25
2018-12-13T23:09:25.082Z,79.25
2018-12-13T23:11:52.949Z,79.27
2018-12-13T23:14:20.536Z,79.16
2018-12-13T23:16:48.150Z,78.82
2018-12-13T23:19:15.737Z,79.18
2018-12-13T23:21:43.296Z,78.70
2018-12-13T23:24:10.903Z,78.59
2018-12-13T23:26:38.835Z,78.87
2018-12-13T23:29:06.698Z,78.83
2018-12-13T23:31:34.361Z,77.93
2018-12-13T23:34:01.981Z,78.38
2018-12-13T23:36:29.558Z,77.88
2018-12-13T23:38:57.177Z,77.65
2018-12-13T23:41:24.742Z,76.93
2018-12-13T23:43:52.315Z,76.71
2018-12-13T23:46:19.854Z,76.84
2018-12-13T23:48:47.400Z,77.00
2018-12-13T23:51:15.121Z,77.05
2018-12-13T23:53:42.870Z,76.44
2018-12-13T23:56:10.633Z,76.46
2018-12-13T23:58:38.515Z,75.37
